Waverly, KS

10:24 AM CST on January 25, 2015 (GMT -0600)
KD0RII | Change Station
CLOSE
Current Station
Personal Weather Station
Location: Melvern, KS
Elevation: 1007 ft
Nearby Weather Stations

Elev 1007 ft 38.50 °N, 95.64 °W | Updated 2 minutes ago

Overcast
Overcast
40.6 °F
Feels Like 34 °F
N
11.4
Wind Variable Wind from North
Gusts 19.7 mph

Today
High -- | Low -- °F
--% Chance of Precip.
Yesterday
High -- | Low -- °F
Precip. -- in
7:33 AM 5:36 PM
Waxing Crescent, 33% visible
Pressure 29.87 in
Visibility 10.0 miles
Clouds Overcast 2700 ft
Windchill 34 °F
Dew Point 34 °F
Humidity 76%
Rainfall 0.00 in
Snow Depth Not available.
UV 1 out of 12
Pollen 1.40 out of 12
Air Quality Not available.
Flu Activity Not available.
METAR KEMP 251553Z AUTO 32019G28KT 10SM OVC027 05/M01 A2985 RMK AO2 PK WND 32036/1457 SLP115 T00501006

More Conditions Fewer Conditions

Pressure 29.87 in
Visibility 10.0 miles
Clouds Overcast 2700 ft
Windchill 34 °F
Dew Point 34 °F
Humidity 76%
Rainfall 0.00 in
Snow Depth Not available.
UV 1 out of 12
Pollen 1.40 out of 12
Air Quality Not available.
Flu Activity Not available.
METAR KEMP 251553Z AUTO 32019G28KT 10SM OVC027 05/M01 A2985 RMK AO2 PK WND 32036/1457 SLP115 T00501006

More Conditions Fewer Conditions

10-Day Weather Forecast

Almanac

Astronomy

Jan. 25, 2015 Rise Set
Actual Time
Civil Twilight
Nautical Twilight
Astronomical Twilight
Moon
Length of Visible Light
Length of Day
Tomorrow will be .
, % of the Moon is Illuminated

Today's Extremes

State Highs State Lows

Community

WunderPhotos

Upload Photos

1,789,952 photos uploaded!

WunderBlogs® & News

Nearby

Air Quality

  Air Quality AQ Index Pollutant
Not available.

Snow Depth

Station Depth Elevation

Earthquake Activity

City Distance Mag. Time & Date
Minimum magnitude displayed is 2.5.

Coastal Water Temperatures

Place Temperature

Nearby Weather Stations